createdAt,value
2019-05-05T00:02:17.712Z,4.77
2019-05-05T00:05:19.394Z,4.83
2019-05-05T00:08:10.637Z,5.40
2019-05-05T00:11:15.418Z,5.20
2019-05-05T00:14:16.530Z,5.70
2019-05-05T00:17:16.325Z,4.90
2019-05-05T00:20:07.430Z,4.60
2019-05-05T00:22:58.186Z,5.13
2019-05-05T00:25:49.478Z,4.70
2019-05-05T00:28:39.928Z,5.37
2019-05-05T00:31:30.310Z,5.67
2019-05-05T00:34:21.409Z,5.07
2019-05-05T00:37:14.946Z,4.90
2019-05-05T00:40:05.324Z,5.13
2019-05-05T00:42:55.936Z,4.27
2019-05-05T00:45:49.171Z,5.13
2019-05-05T00:48:46.072Z,5.47
2019-05-05T00:51:37.035Z,5.43
2019-05-05T00:54:27.601Z,5.50
2019-05-05T00:57:18.983Z,4.80
2019-05-05T01:00:24.505Z,5.30
2019-05-05T01:03:15.385Z,4.53
2019-05-05T01:06:17.590Z,5.00
2019-05-05T01:09:10.684Z,5.03
2019-05-05T01:12:00.929Z,5.40
2019-05-05T01:14:51.323Z,4.90
2019-05-05T01:17:41.758Z,5.07
2019-05-05T01:20:34.298Z,5.23
2019-05-05T01:23:25.638Z,5.23
2019-05-05T01:26:16.198Z,5.70
2019-05-05T01:29:09.057Z,5.37
2019-05-05T01:32:01.396Z,6.03
2019-05-05T01:34:54.786Z,4.90
2019-05-05T01:37:51.796Z,4.50
2019-05-05T01:41:01.032Z,4.20
2019-05-05T01:43:54.096Z,5.63
2019-05-05T01:46:44.595Z,5.70
2019-05-05T01:49:35.929Z,4.60
2019-05-05T01:52:27.523Z,4.77
2019-05-05T01:55:18.539Z,4.53
2019-05-05T01:58:08.975Z,5.57
2019-05-05T02:00:59.662Z,4.57
2019-05-05T02:03:50.051Z,5.13
2019-05-05T02:06:40.502Z,5.17
2019-05-05T02:09:30.892Z,5.57
2019-05-05T02:12:21.928Z,4.87
2019-05-05T02:15:14.725Z,5.53
2019-05-05T02:18:05.276Z,5.20
2019-05-05T02:21:05.091Z,5.07
2019-05-05T02:23:56.466Z,4.53
2019-05-05T02:26:46.668Z,4.73
2019-05-05T02:29:56.564Z,4.90
2019-05-05T02:32:49.567Z,4.73
2019-05-05T02:35:40.937Z,5.03
2019-05-05T02:38:35.266Z,4.80
2019-05-05T02:41:25.428Z,4.53
2019-05-05T02:44:16.094Z,4.23
2019-05-05T02:47:15.934Z,4.67
2019-05-05T02:50:08.250Z,4.67
2019-05-05T02:53:00.269Z,6.50
2019-05-05T02:55:50.623Z,4.60
2019-05-05T02:58:40.683Z,4.17
2019-05-05T03:01:47.826Z,4.43
2019-05-05T03:04:38.047Z,5.13
2019-05-05T03:07:29.616Z,3.80
2019-05-05T03:10:20.808Z,3.47
2019-05-05T03:13:13.906Z,3.13
2019-05-05T03:16:34.109Z,3.03
2019-05-05T03:19:25.105Z,4.00
2019-05-05T03:22:16.330Z,3.90
2019-05-05T03:25:06.572Z,4.27
2019-05-05T03:27:57.300Z,3.67
2019-05-05T03:30:48.656Z,3.73
2019-05-05T03:33:40.382Z,4.47
2019-05-05T03:36:30.820Z,3.70
2019-05-05T03:39:25.073Z,3.73
2019-05-05T03:42:37.974Z,3.57
2019-05-05T03:45:34.171Z,3.57
2019-05-05T03:48:26.313Z,3.83
2019-05-05T03:51:20.554Z,4.70
2019-05-05T03:54:09.852Z,3.97
2019-05-05T03:57:10.479Z,3.43
2019-05-05T04:00:01.032Z,3.00
2019-05-05T04:02:58.453Z,4.50
2019-05-05T04:05:54.173Z,3.37
2019-05-05T04:08:45.119Z,3.53
2019-05-05T04:11:35.523Z,4.30
2019-05-05T04:14:26.553Z,4.07
2019-05-05T04:17:38.852Z,3.20
2019-05-05T04:20:47.630Z,3.13
2019-05-05T04:23:37.965Z,3.70
2019-05-05T04:26:29.009Z,4.30
2019-05-05T04:29:19.377Z,4.50
2019-05-05T04:32:10.427Z,4.50
2019-05-05T04:35:03.571Z,3.50
2019-05-05T04:37:54.354Z,4.93
2019-05-05T04:40:45.018Z,4.30
2019-05-05T04:43:35.443Z,5.40
2019-05-05T04:46:26.362Z,4.70
2019-05-05T04:49:28.775Z,4.90
2019-05-05T04:52:20.745Z,5.60
2019-05-05T04:55:11.242Z,4.40
2019-05-05T04:58:01.428Z,4.60
2019-05-05T05:00:51.613Z,3.87
2019-05-05T05:03:56.837Z,4.43
2019-05-05T05:06:54.221Z,4.40
2019-05-05T05:09:44.717Z,4.00
2019-05-05T05:12:36.034Z,4.20
2019-05-05T05:15:26.359Z,4.83
2019-05-05T05:18:17.861Z,4.00
2019-05-05T05:21:09.192Z,4.47
2019-05-05T05:24:00.211Z,3.77
2019-05-05T05:26:52.136Z,4.67
2019-05-05T05:29:43.886Z,3.97
2019-05-05T05:32:34.858Z,4.10
2019-05-05T05:35:26.112Z,4.37
2019-05-05T05:38:17.221Z,5.43
2019-05-05T05:41:15.796Z,4.00
2019-05-05T05:44:14.458Z,4.13
2019-05-05T05:47:24.891Z,4.20
2019-05-05T05:50:28.608Z,3.93
2019-05-05T05:53:19.816Z,4.17
2019-05-05T05:56:11.102Z,4.63
2019-05-05T05:59:03.674Z,5.13
2019-05-05T06:02:08.724Z,4.07
2019-05-05T06:04:46.910Z,6.27
2019-05-05T06:07:38.121Z,3.10
2019-05-05T06:10:28.684Z,4.20
2019-05-05T06:13:19.076Z,3.20
2019-05-05T06:16:09.399Z,3.93
2019-05-05T06:19:03.486Z,5.90
2019-05-05T06:21:54.393Z,3.67
2019-05-05T06:24:44.847Z,4.77
2019-05-05T06:27:35.691Z,4.20
2019-05-05T06:30:26.102Z,4.90
2019-05-05T06:33:16.526Z,3.37
2019-05-05T06:36:07.872Z,3.10
2019-05-05T06:38:58.503Z,3.40
2019-05-05T06:42:04.361Z,3.43
2019-05-05T06:44:59.170Z,5.17
2019-05-05T06:47:50.084Z,2.60
2019-05-05T06:50:40.877Z,2.67
2019-05-05T06:53:34.022Z,3.50
2019-05-05T06:56:24.231Z,3.03
2019-05-05T06:59:15.688Z,4.57
2019-05-05T07:02:07.276Z,2.43
2019-05-05T07:04:57.596Z,3.90
2019-05-05T07:07:48.061Z,2.80
2019-05-05T07:10:38.321Z,3.80
2019-05-05T07:13:29.366Z,2.97
2019-05-05T07:16:20.607Z,5.07
2019-05-05T07:19:10.865Z,4.63
2019-05-05T07:22:01.537Z,5.50
2019-05-05T07:24:54.296Z,3.20
2019-05-05T07:27:44.682Z,3.23
2019-05-05T07:30:35.118Z,3.67
2019-05-05T07:33:26.070Z,4.70
2019-05-05T07:36:50.780Z,3.33
2019-05-05T07:39:40.891Z,3.80
2019-05-05T07:42:31.100Z,2.60
2019-05-05T07:45:25.125Z,2.97
2019-05-05T07:48:13.851Z,3.43
2019-05-05T07:51:05.507Z,3.90
2019-05-05T07:53:55.860Z,2.50
2019-05-05T07:56:46.174Z,2.50
2019-05-05T07:59:37.349Z,3.00
2019-05-05T08:02:28.275Z,3.10
2019-05-05T08:05:19.530Z,2.47
2019-05-05T08:08:10.549Z,2.17
2019-05-05T08:11:01.236Z,2.30
2019-05-05T08:13:51.596Z,2.63
2019-05-05T08:16:53.687Z,2.37
2019-05-05T08:20:06.667Z,3.10
2019-05-05T08:22:57.173Z,3.67
2019-05-05T08:26:07.461Z,3.10
2019-05-05T08:29:04.648Z,2.13
2019-05-05T08:32:00.947Z,2.93
2019-05-05T08:34:58.114Z,2.63
2019-05-05T08:37:43.637Z,2.70
2019-05-05T08:40:34.834Z,1.90
2019-05-05T08:43:25.970Z,1.93
2019-05-05T08:46:16.787Z,1.60
2019-05-05T08:49:07.668Z,1.50
2019-05-05T08:51:58.807Z,2.10
2019-05-05T08:54:48.978Z,2.20
2019-05-05T08:57:39.390Z,2.07
2019-05-05T09:00:29.836Z,2.10
2019-05-05T09:03:20.495Z,1.83
2019-05-05T09:06:10.897Z,1.90
2019-05-05T09:09:01.256Z,2.73
2019-05-05T09:11:54.206Z,3.47
2019-05-05T09:14:45.029Z,2.10
2019-05-05T09:17:35.461Z,3.33
2019-05-05T09:20:26.703Z,2.20
2019-05-05T09:23:17.993Z,2.17
2019-05-05T09:26:30.150Z,1.80
2019-05-05T09:29:24.338Z,2.93
2019-05-05T09:32:14.743Z,2.10
2019-05-05T09:35:06.487Z,2.90
2019-05-05T09:37:56.912Z,1.90
2019-05-05T09:40:51.384Z,3.33
2019-05-05T09:43:44.564Z,2.47
2019-05-05T09:46:34.695Z,3.23
2019-05-05T09:49:25.318Z,2.03
2019-05-05T09:52:16.359Z,3.23
2019-05-05T09:55:07.420Z,2.00
2019-05-05T09:57:57.737Z,3.00
2019-05-05T10:00:48.120Z,2.57
2019-05-05T10:03:38.797Z,2.30
2019-05-05T10:06:29.086Z,1.87
2019-05-05T10:09:19.959Z,2.43
2019-05-05T10:12:11.257Z,5.40
2019-05-05T10:15:07.155Z,5.23
2019-05-05T10:17:54.593Z,2.07
2019-05-05T10:20:45.281Z,1.70
2019-05-05T10:23:38.770Z,2.50
2019-05-05T10:26:28.890Z,1.57
2019-05-05T10:29:19.813Z,2.27
2019-05-05T10:32:11.111Z,3.00
2019-05-05T10:35:04.459Z,2.43
2019-05-05T10:37:57.700Z,1.80
2019-05-05T10:40:48.866Z,2.20
2019-05-05T10:43:38.999Z,2.87
2019-05-05T10:46:29.928Z,4.27
2019-05-05T10:49:21.208Z,2.70
2019-05-05T10:52:14.063Z,1.57
2019-05-05T10:55:04.337Z,2.00
2019-05-05T10:57:55.471Z,3.27
2019-05-05T11:01:03.957Z,1.77
2019-05-05T11:03:53.842Z,3.70
2019-05-05T11:06:44.213Z,3.43
2019-05-05T11:09:35.310Z,2.30
2019-05-05T11:12:25.401Z,1.63
2019-05-05T11:15:15.870Z,4.13
2019-05-05T11:18:07.132Z,4.43
2019-05-05T11:20:58.190Z,2.53
2019-05-05T11:23:49.287Z,2.30
2019-05-05T11:26:40.447Z,4.43
2019-05-05T11:29:31.595Z,4.00
2019-05-05T11:32:40.867Z,3.27
2019-05-05T11:35:54.580Z,2.77
2019-05-05T11:38:45.605Z,2.50
2019-05-05T11:41:36.044Z,2.83
2019-05-05T11:44:26.593Z,2.30
2019-05-05T11:47:17.736Z,1.97
2019-05-05T11:50:09.633Z,1.97
2019-05-05T11:53:00.269Z,2.10
2019-05-05T11:55:50.989Z,3.07
2019-05-05T11:58:41.237Z,2.73
2019-05-05T12:01:31.526Z,2.13
2019-05-05T12:04:23.972Z,2.67
2019-05-05T12:07:14.691Z,3.20
2019-05-05T12:10:07.638Z,4.73
2019-05-05T12:12:58.145Z,2.00
2019-05-05T12:15:53.810Z,2.10
2019-05-05T12:18:46.220Z,2.53
2019-05-05T12:21:37.682Z,1.73
2019-05-05T12:24:33.885Z,2.17
2019-05-05T12:27:30.996Z,2.13
2019-05-05T12:30:22.262Z,3.67
2019-05-05T12:33:13.792Z,2.93
2019-05-05T12:36:04.800Z,1.87
2019-05-05T12:38:55.234Z,2.37
2019-05-05T12:41:45.978Z,2.60
2019-05-05T12:44:59.962Z,3.50
2019-05-05T12:48:07.962Z,2.70
2019-05-05T12:50:58.810Z,2.30
2019-05-05T12:53:50.843Z,1.90
2019-05-05T12:56:41.764Z,3.57
2019-05-05T12:59:33.847Z,3.87
2019-05-05T13:02:24.213Z,1.57
2019-05-05T13:05:15.372Z,2.43
2019-05-05T13:08:07.354Z,1.77
2019-05-05T13:10:58.269Z,2.53
2019-05-05T13:13:49.721Z,1.90
2019-05-05T13:16:50.630Z,2.47
2019-05-05T13:19:51.716Z,1.77
2019-05-05T13:22:49.336Z,3.20
2019-05-05T13:26:04.213Z,1.83
2019-05-05T13:28:54.290Z,1.47
2019-05-05T13:31:44.780Z,1.60
2019-05-05T13:34:35.521Z,3.00
2019-05-05T13:37:25.916Z,3.70
2019-05-05T13:40:17.473Z,3.30
2019-05-05T13:43:08.114Z,2.07
2019-05-05T13:46:14.098Z,1.93
2019-05-05T13:49:24.948Z,3.47
2019-05-05T13:52:15.525Z,2.10
2019-05-05T13:55:07.624Z,2.43
2019-05-05T13:57:59.445Z,2.37
2019-05-05T14:00:51.023Z,1.90
2019-05-05T14:03:44.761Z,2.70
2019-05-05T14:06:35.443Z,1.60
2019-05-05T14:09:26.715Z,2.10
2019-05-05T14:12:17.663Z,3.97
2019-05-05T14:15:09.168Z,2.03
2019-05-05T14:18:00.442Z,1.97
2019-05-05T14:20:51.868Z,2.17
2019-05-05T14:24:16.544Z,3.73
2019-05-05T14:27:07.182Z,3.47
2019-05-05T14:30:14.676Z,3.47
2019-05-05T14:33:07.354Z,2.93
2019-05-05T14:36:05.166Z,2.23
2019-05-05T14:39:06.694Z,1.97
2019-05-05T14:41:59.553Z,1.83
2019-05-05T14:44:50.830Z,2.80
2019-05-05T14:47:41.298Z,2.43
2019-05-05T14:50:31.922Z,3.60
2019-05-05T14:53:24.125Z,2.20
2019-05-05T14:56:14.422Z,2.37
2019-05-05T14:59:04.594Z,3.20
2019-05-05T15:01:55.358Z,2.40
2019-05-05T15:04:45.760Z,2.10
2019-05-05T15:07:46.080Z,1.80
2019-05-05T15:10:54.777Z,1.53
2019-05-05T15:13:45.934Z,1.40
2019-05-05T15:16:37.358Z,4.73
2019-05-05T15:19:28.616Z,4.20
2019-05-05T15:22:19.478Z,3.03
2019-05-05T15:25:10.585Z,2.23
2019-05-05T15:28:01.249Z,2.00
2019-05-05T15:30:51.742Z,3.30
2019-05-05T15:33:44.024Z,1.80
2019-05-05T15:36:33.892Z,1.97
2019-05-05T15:39:25.187Z,2.53
2019-05-05T15:42:15.939Z,1.47
2019-05-05T15:45:07.319Z,2.43
2019-05-05T15:47:57.746Z,1.53
2019-05-05T15:50:48.736Z,2.60
2019-05-05T15:53:39.184Z,2.17
2019-05-05T15:56:30.380Z,2.70
2019-05-05T15:59:21.375Z,1.70
2019-05-05T16:02:13.375Z,1.80
2019-05-05T16:05:04.513Z,2.03
2019-05-05T16:07:55.732Z,1.73
2019-05-05T16:10:46.540Z,2.37
2019-05-05T16:13:38.183Z,2.10
2019-05-05T16:16:48.067Z,2.10
2019-05-05T16:19:58.488Z,1.80
2019-05-05T16:23:01.242Z,2.27
2019-05-05T16:25:51.674Z,2.53
2019-05-05T16:28:44.579Z,3.17
2019-05-05T16:31:36.068Z,1.80
2019-05-05T16:34:26.819Z,2.80
2019-05-05T16:37:18.190Z,2.03
2019-05-05T16:40:09.163Z,3.07
2019-05-05T16:42:59.491Z,2.37
2019-05-05T16:45:49.609Z,2.17
2019-05-05T16:48:40.933Z,1.90
2019-05-05T16:51:34.996Z,1.90
2019-05-05T16:54:34.289Z,2.83
2019-05-05T16:57:33.729Z,2.10
2019-05-05T17:00:17.347Z,1.73
2019-05-05T17:03:08.715Z,1.80
2019-05-05T17:05:59.370Z,2.00
2019-05-05T17:08:50.450Z,1.83
2019-05-05T17:11:43.987Z,3.70
2019-05-05T17:14:44.435Z,1.87
2019-05-05T17:17:44.564Z,1.60
2019-05-05T17:20:39.899Z,1.83
2019-05-05T17:23:30.496Z,2.07
2019-05-05T17:26:24.134Z,2.27
2019-05-05T17:29:14.601Z,1.77
2019-05-05T17:32:05.451Z,2.07
2019-05-05T17:34:56.449Z,1.83
2019-05-05T17:37:47.759Z,1.73
2019-05-05T17:40:56.607Z,1.93
2019-05-05T17:44:04.949Z,1.97
2019-05-05T17:47:17.419Z,2.00
2019-05-05T17:50:19.512Z,2.33
2019-05-05T17:53:23.614Z,2.27
2019-05-05T17:56:16.150Z,1.90
2019-05-05T17:59:07.246Z,2.83
2019-05-05T18:01:58.486Z,1.97
2019-05-05T18:04:49.053Z,1.90
2019-05-05T18:07:43.988Z,2.00
2019-05-05T18:10:43.919Z,3.27
2019-05-05T18:13:40.041Z,3.03
2019-05-05T18:16:30.216Z,3.40
2019-05-05T18:19:21.489Z,3.57
2019-05-05T18:22:13.904Z,4.07
2019-05-05T18:25:05.652Z,3.67
2019-05-05T18:27:56.511Z,5.90
2019-05-05T18:30:47.471Z,4.93
2019-05-05T18:33:38.551Z,2.70
2019-05-05T18:36:28.932Z,3.27
2019-05-05T18:39:19.316Z,2.80
2019-05-05T18:42:16.127Z,2.67
2019-05-05T18:45:10.760Z,4.27
2019-05-05T18:48:02.142Z,3.20
2019-05-05T18:50:54.172Z,2.30
2019-05-05T18:53:44.366Z,2.60
2019-05-05T18:56:35.759Z,2.77
2019-05-05T18:59:26.109Z,1.70
2019-05-05T19:02:44.641Z,2.03
2019-05-05T19:05:53.612Z,1.97
2019-05-05T19:08:54.222Z,2.50
2019-05-05T19:11:40.512Z,2.27
2019-05-05T19:14:31.165Z,3.00
2019-05-05T19:17:23.456Z,3.13
2019-05-05T19:20:20.486Z,2.60
2019-05-05T19:23:10.916Z,2.57
2019-05-05T19:26:01.350Z,2.40
2019-05-05T19:28:54.780Z,2.87
2019-05-05T19:31:45.941Z,3.83
2019-05-05T19:34:37.278Z,2.77
2019-05-05T19:37:28.584Z,2.07
2019-05-05T19:40:19.662Z,3.20
2019-05-05T19:43:10.607Z,2.63
2019-05-05T19:46:02.072Z,3.83
2019-05-05T19:48:55.374Z,4.93
2019-05-05T19:51:45.999Z,2.93
2019-05-05T19:54:38.039Z,2.30
2019-05-05T19:57:28.330Z,2.43
2019-05-05T20:00:19.860Z,2.37
2019-05-05T20:03:10.849Z,1.93
2019-05-05T20:06:02.114Z,3.20
2019-05-05T20:08:53.670Z,3.10
2019-05-05T20:11:44.796Z,3.80
2019-05-05T20:14:35.448Z,3.23
2019-05-05T20:17:37.057Z,3.00
2019-05-05T20:20:28.172Z,2.97
2019-05-05T20:23:18.517Z,2.73
2019-05-05T20:26:08.938Z,2.57
2019-05-05T20:29:11.521Z,3.33
2019-05-05T20:31:52.283Z,2.80
2019-05-05T20:35:03.928Z,2.93
2019-05-05T20:38:01.777Z,3.83
2019-05-05T20:41:10.642Z,3.10
2019-05-05T20:44:01.052Z,3.37
2019-05-05T20:46:53.537Z,2.87
2019-05-05T20:49:44.518Z,3.23
2019-05-05T20:52:34.903Z,2.87
2019-05-05T20:55:26.013Z,2.77
2019-05-05T20:58:17.235Z,3.40
2019-05-05T21:01:07.905Z,3.27
2019-05-05T21:03:58.265Z,2.93
2019-05-05T21:06:48.408Z,2.97
2019-05-05T21:09:39.678Z,3.37
2019-05-05T21:12:41.732Z,3.00
2019-05-05T21:15:24.640Z,3.27
2019-05-05T21:18:16.056Z,2.80
2019-05-05T21:21:08.215Z,3.00
2019-05-05T21:24:00.467Z,3.80
2019-05-05T21:26:55.566Z,2.60
2019-05-05T21:29:45.969Z,3.20
2019-05-05T21:32:36.483Z,3.70
2019-05-05T21:35:27.648Z,3.83
2019-05-05T21:38:18.400Z,3.10
2019-05-05T21:41:09.554Z,2.63
2019-05-05T21:44:00.621Z,3.37
2019-05-05T21:46:51.016Z,4.37
2019-05-05T21:49:41.979Z,3.67
2019-05-05T21:52:39.114Z,4.43
2019-05-05T21:55:55.008Z,3.60
2019-05-05T21:58:46.289Z,4.33
2019-05-05T22:01:40.185Z,4.50
2019-05-05T22:04:30.092Z,3.70
2019-05-05T22:07:21.178Z,5.03
2019-05-05T22:10:13.477Z,5.10
2019-05-05T22:13:04.884Z,3.00
2019-05-05T22:15:56.424Z,4.00
2019-05-05T22:18:47.619Z,3.03
2019-05-05T22:21:49.299Z,4.03
2019-05-05T22:24:40.519Z,3.90
2019-05-05T22:27:30.622Z,3.97
2019-05-05T22:30:23.582Z,3.77
2019-05-05T22:33:13.790Z,5.33
2019-05-05T22:36:07.103Z,3.57
2019-05-05T22:38:57.781Z,3.60
2019-05-05T22:41:48.124Z,3.77
2019-05-05T22:44:38.744Z,4.13
2019-05-05T22:47:29.080Z,5.00
2019-05-05T22:50:20.242Z,3.90
2019-05-05T22:53:14.021Z,7.73
2019-05-05T22:56:04.095Z,4.07
2019-05-05T22:58:55.423Z,5.53
2019-05-05T23:01:46.502Z,4.57
2019-05-05T23:04:54.576Z,5.83
2019-05-05T23:07:46.800Z,4.70
2019-05-05T23:10:38.303Z,4.40
2019-05-05T23:13:29.001Z,4.23
2019-05-05T23:16:28.962Z,4.53
2019-05-05T23:19:19.786Z,3.97
2019-05-05T23:22:29.003Z,4.53
2019-05-05T23:25:25.956Z,5.17
2019-05-05T23:28:16.840Z,4.20
2019-05-05T23:31:08.002Z,4.40
2019-05-05T23:33:59.449Z,4.73
2019-05-05T23:36:50.654Z,5.33
2019-05-05T23:39:41.944Z,5.17
2019-05-05T23:42:33.666Z,5.30
2019-05-05T23:45:25.234Z,4.80
2019-05-05T23:48:17.086Z,4.47
2019-05-05T23:51:08.183Z,4.80
2019-05-05T23:53:58.232Z,4.03
2019-05-05T23:56:49.473Z,4.23
2019-05-05T23:59:40.131Z,5.03
